sensor_id;sensor_type;location;lat;lon;timestamp;temperature;humidity
70947;DHT22;58605;48.700;8.760;2022-07-29T00:00:19;18.00;99.90
70947;DHT22;58605;48.700;8.760;2022-07-29T00:02:45;18.00;99.90
70947;DHT22;58605;48.700;8.760;2022-07-29T00:05:11;18.00;99.90
70947;DHT22;58605;48.700;8.760;2022-07-29T00:07:39;18.00;99.90
70947;DHT22;58605;48.700;8.760;2022-07-29T00:10:07;18.10;99.90
70947;DHT22;58605;48.700;8.760;2022-07-29T00:12:33;18.10;99.90
70947;DHT22;58605;48.700;8.760;2022-07-29T00:14:59;18.10;99.90
70947;DHT22;58605;48.700;8.760;2022-07-29T00:17:27;18.00;99.90
70947;DHT22;58605;48.700;8.760;2022-07-29T00:19:53;18.00;99.90
70947;DHT22;58605;48.700;8.760;2022-07-29T00:22:19;17.90;99.90
70947;DHT22;58605;48.700;8.760;2022-07-29T00:24:46;17.70;99.90
70947;DHT22;58605;48.700;8.760;2022-07-29T00:27:12;17.60;99.90
70947;DHT22;58605;48.700;8.760;2022-07-29T00:29:38;17.60;99.90
70947;DHT22;58605;48.700;8.760;2022-07-29T00:32:05;17.60;99.90
70947;DHT22;58605;48.700;8.760;2022-07-29T00:34:33;17.50;99.90
70947;DHT22;58605;48.700;8.760;2022-07-29T00:37:18;17.50;99.90
70947;DHT22;58605;48.700;8.760;2022-07-29T00:39:44;17.40;99.90
70947;DHT22;58605;48.700;8.760;2022-07-29T00:42:10;17.40;99.90
70947;DHT22;58605;48.700;8.760;2022-07-29T00:44:37;17.40;99.90
70947;DHT22;58605;48.700;8.760;2022-07-29T00:47:03;17.40;99.90
70947;DHT22;58605;48.700;8.760;2022-07-29T00:49:32;17.40;99.90
70947;DHT22;58605;48.700;8.760;2022-07-29T00:51:58;17.40;99.90
70947;DHT22;58605;48.700;8.760;2022-07-29T00:54:32;17.50;99.90
70947;DHT22;58605;48.700;8.760;2022-07-29T00:56:58;17.60;99.90
70947;DHT22;58605;48.700;8.760;2022-07-29T00:59:25;17.60;99.90
70947;DHT22;58605;48.700;8.760;2022-07-29T01:01:53;17.50;99.90
70947;DHT22;58605;48.700;8.760;2022-07-29T01:04:22;17.40;99.90
70947;DHT22;58605;48.700;8.760;2022-07-29T01:06:49;17.50;99.90
70947;DHT22;58605;48.700;8.760;2022-07-29T01:09:17;17.50;99.90
70947;DHT22;58605;48.700;8.760;2022-07-29T01:11:44;17.40;99.90
70947;DHT22;58605;48.700;8.760;2022-07-29T01:14:15;17.40;99.90
70947;DHT22;58605;48.700;8.760;2022-07-29T01:16:51;17.30;99.90
70947;DHT22;58605;48.700;8.760;2022-07-29T01:19:33;17.20;99.90
70947;DHT22;58605;48.700;8.760;2022-07-29T01:22:18;17.30;99.90
70947;DHT22;58605;48.700;8.760;2022-07-29T01:25:03;17.30;99.90
70947;DHT22;58605;48.700;8.760;2022-07-29T01:27:41;17.20;99.90
70947;DHT22;58605;48.700;8.760;2022-07-29T01:30:11;17.20;99.90
70947;DHT22;58605;48.700;8.760;2022-07-29T01:32:39;17.20;99.90
70947;DHT22;58605;48.700;8.760;2022-07-29T01:35:10;17.20;99.90
70947;DHT22;58605;48.700;8.760;2022-07-29T01:37:44;17.30;99.90
70947;DHT22;58605;48.700;8.760;2022-07-29T01:40:17;17.30;99.90
70947;DHT22;58605;48.700;8.760;2022-07-29T01:42:49;17.30;99.90
70947;DHT22;58605;48.700;8.760;2022-07-29T01:45:20;17.40;99.90
70947;DHT22;58605;48.700;8.760;2022-07-29T01:47:56;17.40;99.90
70947;DHT22;58605;48.700;8.760;2022-07-29T01:50:30;17.50;99.90
70947;DHT22;58605;48.700;8.760;2022-07-29T01:53:00;17.40;99.90
70947;DHT22;58605;48.700;8.760;2022-07-29T01:55:31;17.40;99.90
70947;DHT22;58605;48.700;8.760;2022-07-29T01:57:59;17.40;99.90
70947;DHT22;58605;48.700;8.760;2022-07-29T02:00:27;17.40;99.90
70947;DHT22;58605;48.700;8.760;2022-07-29T02:02:56;17.50;99.90
70947;DHT22;58605;48.700;8.760;2022-07-29T02:05:24;17.50;99.90
70947;DHT22;58605;48.700;8.760;2022-07-29T02:07:54;17.40;99.90
70947;DHT22;58605;48.700;8.760;2022-07-29T02:10:23;17.50;99.90
70947;DHT22;58605;48.700;8.760;2022-07-29T02:12:51;17.50;99.90
70947;DHT22;58605;48.700;8.760;2022-07-29T02:15:20;17.50;99.90
70947;DHT22;58605;48.700;8.760;2022-07-29T02:17:53;17.40;99.90
70947;DHT22;58605;48.700;8.760;2022-07-29T02:20:22;17.30;99.90
70947;DHT22;58605;48.700;8.760;2022-07-29T02:22:49;17.30;99.90
70947;DHT22;58605;48.700;8.760;2022-07-29T02:25:18;17.20;99.90
70947;DHT22;58605;48.700;8.760;2022-07-29T02:27:47;17.10;99.90
70947;DHT22;58605;48.700;8.760;2022-07-29T02:30:14;17.10;99.90
70947;DHT22;58605;48.700;8.760;2022-07-29T02:32:41;17.10;99.90
70947;DHT22;58605;48.700;8.760;2022-07-29T02:35:13;17.20;99.90
70947;DHT22;58605;48.700;8.760;2022-07-29T02:37:40;17.40;99.90
70947;DHT22;58605;48.700;8.760;2022-07-29T02:40:10;17.50;99.90
70947;DHT22;58605;48.700;8.760;2022-07-29T02:42:37;17.40;99.90
70947;DHT22;58605;48.700;8.760;2022-07-29T02:45:05;17.50;99.90
70947;DHT22;58605;48.700;8.760;2022-07-29T02:47:36;17.50;99.90
70947;DHT22;58605;48.700;8.760;2022-07-29T02:50:06;17.50;99.90
70947;DHT22;58605;48.700;8.760;2022-07-29T02:52:41;17.40;99.90
70947;DHT22;58605;48.700;8.760;2022-07-29T02:55:14;17.40;99.90
70947;DHT22;58605;48.700;8.760;2022-07-29T02:57:43;17.30;99.90
70947;DHT22;58605;48.700;8.760;2022-07-29T03:00:11;17.20;99.90
70947;DHT22;58605;48.700;8.760;2022-07-29T03:02:40;17.10;99.90
70947;DHT22;58605;48.700;8.760;2022-07-29T03:05:11;17.10;99.90
70947;DHT22;58605;48.700;8.760;2022-07-29T03:07:41;17.00;99.90
70947;DHT22;58605;48.700;8.760;2022-07-29T03:10:08;16.90;99.90
70947;DHT22;58605;48.700;8.760;2022-07-29T03:12:36;16.80;99.90
70947;DHT22;58605;48.700;8.760;2022-07-29T03:15:02;16.80;99.90
70947;DHT22;58605;48.700;8.760;2022-07-29T03:17:30;16.70;99.90
70947;DHT22;58605;48.700;8.760;2022-07-29T03:19:57;16.60;99.90
70947;DHT22;58605;48.700;8.760;2022-07-29T03:22:24;16.50;99.90
70947;DHT22;58605;48.700;8.760;2022-07-29T03:24:52;16.50;99.90
70947;DHT22;58605;48.700;8.760;2022-07-29T03:27:18;16.50;99.90
70947;DHT22;58605;48.700;8.760;2022-07-29T03:29:44;16.40;99.90
70947;DHT22;58605;48.700;8.760;2022-07-29T03:32:10;16.40;99.90
70947;DHT22;58605;48.700;8.760;2022-07-29T03:34:37;16.40;99.90
70947;DHT22;58605;48.700;8.760;2022-07-29T03:37:03;16.40;99.90
70947;DHT22;58605;48.700;8.760;2022-07-29T03:39:32;16.30;99.90
70947;DHT22;58605;48.700;8.760;2022-07-29T03:42:02;16.30;99.90
70947;DHT22;58605;48.700;8.760;2022-07-29T03:44:31;16.30;99.90
70947;DHT22;58605;48.700;8.760;2022-07-29T03:46:59;16.30;99.90
70947;DHT22;58605;48.700;8.760;2022-07-29T03:49:28;16.50;99.90
70947;DHT22;58605;48.700;8.760;2022-07-29T03:51:55;16.60;99.90
70947;DHT22;58605;48.700;8.760;2022-07-29T03:54:22;16.60;99.90
70947;DHT22;58605;48.700;8.760;2022-07-29T03:56:48;16.60;99.90
70947;DHT22;58605;48.700;8.760;2022-07-29T03:59:18;16.40;99.90
70947;DHT22;58605;48.700;8.760;2022-07-29T04:01:46;16.50;99.90
70947;DHT22;58605;48.700;8.760;2022-07-29T04:04:13;16.50;99.90
70947;DHT22;58605;48.700;8.760;2022-07-29T04:06:40;16.60;99.90
70947;DHT22;58605;48.700;8.760;2022-07-29T04:09:06;16.60;99.90
70947;DHT22;58605;48.700;8.760;2022-07-29T04:11:33;16.60;99.90
70947;DHT22;58605;48.700;8.760;2022-07-29T04:13:59;16.60;99.90
70947;DHT22;58605;48.700;8.760;2022-07-29T04:16:26;16.60;99.90
70947;DHT22;58605;48.700;8.760;2022-07-29T04:18:52;16.60;99.90
70947;DHT22;58605;48.700;8.760;2022-07-29T04:21:19;16.50;99.90
70947;DHT22;58605;48.700;8.760;2022-07-29T04:23:45;16.40;99.90
70947;DHT22;58605;48.700;8.760;2022-07-29T04:26:15;16.30;99.90
70947;DHT22;58605;48.700;8.760;2022-07-29T04:28:41;16.20;99.90
70947;DHT22;58605;48.700;8.760;2022-07-29T04:31:08;16.30;99.90
70947;DHT22;58605;48.700;8.760;2022-07-29T04:33:36;16.40;99.90
70947;DHT22;58605;48.700;8.760;2022-07-29T04:36:02;16.50;99.90
70947;DHT22;58605;48.700;8.760;2022-07-29T04:38:28;16.60;99.90
70947;DHT22;58605;48.700;8.760;2022-07-29T04:40:54;16.60;99.90
70947;DHT22;58605;48.700;8.760;2022-07-29T04:43:20;16.60;99.90
70947;DHT22;58605;48.700;8.760;2022-07-29T04:45:46;16.60;99.90
70947;DHT22;58605;48.700;8.760;2022-07-29T04:48:12;16.60;99.90
70947;DHT22;58605;48.700;8.760;2022-07-29T04:50:39;16.60;99.90
70947;DHT22;58605;48.700;8.760;2022-07-29T04:53:06;16.60;99.90
70947;DHT22;58605;48.700;8.760;2022-07-29T04:55:32;16.60;99.90
70947;DHT22;58605;48.700;8.760;2022-07-29T04:57:58;16.50;99.90
70947;DHT22;58605;48.700;8.760;2022-07-29T05:00:24;16.60;99.90
70947;DHT22;58605;48.700;8.760;2022-07-29T05:02:50;16.50;99.90
70947;DHT22;58605;48.700;8.760;2022-07-29T05:05:16;16.50;99.90
70947;DHT22;58605;48.700;8.760;2022-07-29T05:07:43;16.60;99.90
70947;DHT22;58605;48.700;8.760;2022-07-29T05:10:09;16.70;99.90
70947;DHT22;58605;48.700;8.760;2022-07-29T05:12:37;16.70;99.90
70947;DHT22;58605;48.700;8.760;2022-07-29T05:15:04;16.80;99.90
70947;DHT22;58605;48.700;8.760;2022-07-29T05:17:30;16.80;99.90
70947;DHT22;58605;48.700;8.760;2022-07-29T05:19:56;16.90;99.90
70947;DHT22;58605;48.700;8.760;2022-07-29T05:22:24;17.00;99.90
70947;DHT22;58605;48.700;8.760;2022-07-29T05:24:51;17.00;99.90
70947;DHT22;58605;48.700;8.760;2022-07-29T05:27:17;17.10;99.90
70947;DHT22;58605;48.700;8.760;2022-07-29T05:29:43;17.20;99.90
70947;DHT22;58605;48.700;8.760;2022-07-29T05:32:10;17.30;99.90
70947;DHT22;58605;48.700;8.760;2022-07-29T05:34:36;17.40;99.90
70947;DHT22;58605;48.700;8.760;2022-07-29T05:37:02;17.40;99.90
70947;DHT22;58605;48.700;8.760;2022-07-29T05:39:28;17.50;99.90
70947;DHT22;58605;48.700;8.760;2022-07-29T05:41:56;17.60;99.90
70947;DHT22;58605;48.700;8.760;2022-07-29T05:44:22;17.70;99.90
70947;DHT22;58605;48.700;8.760;2022-07-29T05:46:48;17.70;99.90
70947;DHT22;58605;48.700;8.760;2022-07-29T05:49:14;17.80;99.90
70947;DHT22;58605;48.700;8.760;2022-07-29T05:51:40;18.00;99.90
70947;DHT22;58605;48.700;8.760;2022-07-29T05:54:06;18.00;99.90
70947;DHT22;58605;48.700;8.760;2022-07-29T05:56:32;18.10;99.90
70947;DHT22;58605;48.700;8.760;2022-07-29T05:58:59;18.20;99.90
70947;DHT22;58605;48.700;8.760;2022-07-29T06:01:25;18.30;99.90
70947;DHT22;58605;48.700;8.760;2022-07-29T06:03:51;18.30;99.90
70947;DHT22;58605;48.700;8.760;2022-07-29T06:06:18;18.30;99.90
70947;DHT22;58605;48.700;8.760;2022-07-29T06:08:44;18.30;99.90
70947;DHT22;58605;48.700;8.760;2022-07-29T06:11:10;18.40;99.90
70947;DHT22;58605;48.700;8.760;2022-07-29T06:13:36;18.40;99.90
70947;DHT22;58605;48.700;8.760;2022-07-29T06:16:04;18.50;99.90
70947;DHT22;58605;48.700;8.760;2022-07-29T06:18:30;18.50;99.90
70947;DHT22;58605;48.700;8.760;2022-07-29T06:20:56;18.60;99.90
70947;DHT22;58605;48.700;8.760;2022-07-29T06:23:22;18.60;99.90
70947;DHT22;58605;48.700;8.760;2022-07-29T06:25:48;18.70;99.90
70947;DHT22;58605;48.700;8.760;2022-07-29T06:28:14;18.70;99.90
70947;DHT22;58605;48.700;8.760;2022-07-29T06:30:41;18.70;99.90
70947;DHT22;58605;48.700;8.760;2022-07-29T06:33:08;18.60;99.90
70947;DHT22;58605;48.700;8.760;2022-07-29T06:35:34;18.60;99.90
70947;DHT22;58605;48.700;8.760;2022-07-29T06:38:02;18.80;99.90
70947;DHT22;58605;48.700;8.760;2022-07-29T06:40:28;18.90;99.90
70947;DHT22;58605;48.700;8.760;2022-07-29T06:43:12;19.10;99.90
70947;DHT22;58605;48.700;8.760;2022-07-29T06:45:38;19.20;99.90
70947;DHT22;58605;48.700;8.760;2022-07-29T06:48:08;19.40;99.90
70947;DHT22;58605;48.700;8.760;2022-07-29T06:50:34;19.50;99.90
70947;DHT22;58605;48.700;8.760;2022-07-29T06:53:00;19.60;99.90
70947;DHT22;58605;48.700;8.760;2022-07-29T06:55:26;19.70;99.90
70947;DHT22;58605;48.700;8.760;2022-07-29T06:57:52;19.80;99.90
70947;DHT22;58605;48.700;8.760;2022-07-29T07:00:18;19.90;99.90
70947;DHT22;58605;48.700;8.760;2022-07-29T07:02:44;20.00;99.90
70947;DHT22;58605;48.700;8.760;2022-07-29T07:05:12;20.10;99.90
70947;DHT22;58605;48.700;8.760;2022-07-29T07:07:38;20.30;99.90
70947;DHT22;58605;48.700;8.760;2022-07-29T07:10:05;20.30;99.90
70947;DHT22;58605;48.700;8.760;2022-07-29T07:12:31;20.40;99.90
70947;DHT22;58605;48.700;8.760;2022-07-29T07:14:57;20.60;99.90
70947;DHT22;58605;48.700;8.760;2022-07-29T07:17:23;20.70;99.90
70947;DHT22;58605;48.700;8.760;2022-07-29T07:19:50;21.00;99.90
70947;DHT22;58605;48.700;8.760;2022-07-29T07:22:17;21.00;99.90
70947;DHT22;58605;48.700;8.760;2022-07-29T07:24:43;21.30;99.90
70947;DHT22;58605;48.700;8.760;2022-07-29T07:27:09;21.40;98.00
70947;DHT22;58605;48.700;8.760;2022-07-29T07:29:35;21.40;99.90
70947;DHT22;58605;48.700;8.760;2022-07-29T07:32:02;21.60;99.90
70947;DHT22;58605;48.700;8.760;2022-07-29T07:34:28;21.80;99.90
70947;DHT22;58605;48.700;8.760;2022-07-29T07:36:55;21.90;98.50
70947;DHT22;58605;48.700;8.760;2022-07-29T07:39:23;22.00;99.40
70947;DHT22;58605;48.700;8.760;2022-07-29T07:41:49;22.20;96.80
70947;DHT22;58605;48.700;8.760;2022-07-29T07:44:15;22.20;95.40
70947;DHT22;58605;48.700;8.760;2022-07-29T07:46:42;22.40;91.40
70947;DHT22;58605;48.700;8.760;2022-07-29T07:49:11;22.50;90.70
70947;DHT22;58605;48.700;8.760;2022-07-29T07:51:37;22.50;89.20
70947;DHT22;58605;48.700;8.760;2022-07-29T07:54:05;22.70;86.40
70947;DHT22;58605;48.700;8.760;2022-07-29T07:56:33;22.70;87.70
70947;DHT22;58605;48.700;8.760;2022-07-29T07:58:59;22.60;86.60
70947;DHT22;58605;48.700;8.760;2022-07-29T08:01:25;22.50;87.20
70947;DHT22;58605;48.700;8.760;2022-07-29T08:03:51;22.50;81.90
70947;DHT22;58605;48.700;8.760;2022-07-29T08:06:18;22.70;80.60
70947;DHT22;58605;48.700;8.760;2022-07-29T08:08:44;22.80;81.50
70947;DHT22;58605;48.700;8.760;2022-07-29T08:11:10;23.00;80.00
70947;DHT22;58605;48.700;8.760;2022-07-29T08:13:38;23.20;76.50
70947;DHT22;58605;48.700;8.760;2022-07-29T08:16:07;23.30;74.30
70947;DHT22;58605;48.700;8.760;2022-07-29T08:18:38;23.30;74.50
70947;DHT22;58605;48.700;8.760;2022-07-29T08:21:04;23.40;76.40
70947;DHT22;58605;48.700;8.760;2022-07-29T08:23:31;23.40;73.90
70947;DHT22;58605;48.700;8.760;2022-07-29T08:26:12;23.50;71.50
70947;DHT22;58605;48.700;8.760;2022-07-29T08:28:43;23.50;72.20
70947;DHT22;58605;48.700;8.760;2022-07-29T08:31:11;23.60;72.80
70947;DHT22;58605;48.700;8.760;2022-07-29T08:33:38;23.60;72.50
70947;DHT22;58605;48.700;8.760;2022-07-29T08:36:08;23.60;71.90
70947;DHT22;58605;48.700;8.760;2022-07-29T08:38:34;23.70;71.30
70947;DHT22;58605;48.700;8.760;2022-07-29T08:41:00;23.70;71.20
70947;DHT22;58605;48.700;8.760;2022-07-29T08:43:28;23.50;73.60
70947;DHT22;58605;48.700;8.760;2022-07-29T08:45:56;23.10;74.80
70947;DHT22;58605;48.700;8.760;2022-07-29T08:48:23;23.10;72.60
70947;DHT22;58605;48.700;8.760;2022-07-29T08:50:52;23.10;75.20
70947;DHT22;58605;48.700;8.760;2022-07-29T08:53:21;22.80;75.90
70947;DHT22;58605;48.700;8.760;2022-07-29T08:55:49;22.60;76.20
70947;DHT22;58605;48.700;8.760;2022-07-29T08:58:16;22.50;76.70
70947;DHT22;58605;48.700;8.760;2022-07-29T09:00:46;22.60;75.20
70947;DHT22;58605;48.700;8.760;2022-07-29T09:03:19;22.80;73.40
70947;DHT22;58605;48.700;8.760;2022-07-29T09:05:46;22.90;74.60
70947;DHT22;58605;48.700;8.760;2022-07-29T09:08:14;22.60;75.70
70947;DHT22;58605;48.700;8.760;2022-07-29T09:10:43;22.50;76.40
70947;DHT22;58605;48.700;8.760;2022-07-29T09:13:09;22.40;77.10
70947;DHT22;58605;48.700;8.760;2022-07-29T09:15:36;22.70;74.80
70947;DHT22;58605;48.700;8.760;2022-07-29T09:18:02;22.50;75.90
70947;DHT22;58605;48.700;8.760;2022-07-29T09:20:30;22.50;75.50
70947;DHT22;58605;48.700;8.760;2022-07-29T09:23:16;22.50;76.10
70947;DHT22;58605;48.700;8.760;2022-07-29T09:25:42;23.00;74.10
70947;DHT22;58605;48.700;8.760;2022-07-29T09:28:11;23.50;69.70
70947;DHT22;58605;48.700;8.760;2022-07-29T09:30:51;23.50;71.30
70947;DHT22;58605;48.700;8.760;2022-07-29T09:33:19;23.30;72.60
70947;DHT22;58605;48.700;8.760;2022-07-29T09:35:58;23.30;71.30
70947;DHT22;58605;48.700;8.760;2022-07-29T09:38:24;23.10;72.80
70947;DHT22;58605;48.700;8.760;2022-07-29T09:40:56;23.30;68.60
70947;DHT22;58605;48.700;8.760;2022-07-29T09:43:23;23.20;72.30
70947;DHT22;58605;48.700;8.760;2022-07-29T09:45:49;23.00;73.10
70947;DHT22;58605;48.700;8.760;2022-07-29T09:48:16;22.90;73.60
70947;DHT22;58605;48.700;8.760;2022-07-29T09:50:44;22.70;74.20
70947;DHT22;58605;48.700;8.760;2022-07-29T09:53:30;22.60;76.00
70947;DHT22;58605;48.700;8.760;2022-07-29T09:55:56;22.60;76.00
70947;DHT22;58605;48.700;8.760;2022-07-29T09:58:23;22.80;79.20
70947;DHT22;58605;48.700;8.760;2022-07-29T10:00:51;22.80;78.00
70947;DHT22;58605;48.700;8.760;2022-07-29T10:03:18;22.80;75.90
70947;DHT22;58605;48.700;8.760;2022-07-29T10:05:45;22.70;77.90
70947;DHT22;58605;48.700;8.760;2022-07-29T10:08:13;22.60;80.20
70947;DHT22;58605;48.700;8.760;2022-07-29T10:11:09;22.40;78.40
70947;DHT22;58605;48.700;8.760;2022-07-29T10:13:35;22.30;78.40
70947;DHT22;58605;48.700;8.760;2022-07-29T10:16:02;22.30;77.80
70947;DHT22;58605;48.700;8.760;2022-07-29T10:18:29;22.20;77.90
70947;DHT22;58605;48.700;8.760;2022-07-29T10:20:56;22.30;77.40
70947;DHT22;58605;48.700;8.760;2022-07-29T10:23:25;22.30;78.20
70947;DHT22;58605;48.700;8.760;2022-07-29T10:25:51;22.20;78.50
70947;DHT22;58605;48.700;8.760;2022-07-29T10:28:18;22.10;78.90
70947;DHT22;58605;48.700;8.760;2022-07-29T10:30:45;22.00;79.60
70947;DHT22;58605;48.700;8.760;2022-07-29T10:33:21;21.90;79.50
70947;DHT22;58605;48.700;8.760;2022-07-29T10:36:19;21.70;79.80
70947;DHT22;58605;48.700;8.760;2022-07-29T10:39:02;21.80;80.70
70947;DHT22;58605;48.700;8.760;2022-07-29T10:41:47;22.00;80.60
70947;DHT22;58605;48.700;8.760;2022-07-29T10:44:18;22.10;80.40
70947;DHT22;58605;48.700;8.760;2022-07-29T10:46:45;22.10;79.50
70947;DHT22;58605;48.700;8.760;2022-07-29T10:49:13;22.20;79.30
70947;DHT22;58605;48.700;8.760;2022-07-29T10:52:07;22.20;77.40
70947;DHT22;58605;48.700;8.760;2022-07-29T10:54:42;22.30;77.90
70947;DHT22;58605;48.700;8.760;2022-07-29T10:57:22;22.50;78.30
70947;DHT22;58605;48.700;8.760;2022-07-29T11:00:25;22.60;77.90
70947;DHT22;58605;48.700;8.760;2022-07-29T11:02:45;22.70;78.00
70947;DHT22;58605;48.700;8.760;2022-07-29T11:05:13;22.60;75.00
70947;DHT22;58605;48.700;8.760;2022-07-29T11:08:20;22.80;74.30
70947;DHT22;58605;48.700;8.760;2022-07-29T11:13:51;22.70;75.30
70947;DHT22;58605;48.700;8.760;2022-07-29T11:16:24;22.60;74.90
70947;DHT22;58605;48.700;8.760;2022-07-29T11:19:22;22.50;76.30
70947;DHT22;58605;48.700;8.760;2022-07-29T11:21:51;22.40;76.40
70947;DHT22;58605;48.700;8.760;2022-07-29T11:24:20;22.50;75.90
70947;DHT22;58605;48.700;8.760;2022-07-29T11:27:10;22.40;76.40
70947;DHT22;58605;48.700;8.760;2022-07-29T11:29:40;22.40;77.20
70947;DHT22;58605;48.700;8.760;2022-07-29T11:32:13;22.40;76.50
70947;DHT22;58605;48.700;8.760;2022-07-29T11:34:47;22.20;77.30
70947;DHT22;58605;48.700;8.760;2022-07-29T11:37:19;22.20;76.80
70947;DHT22;58605;48.700;8.760;2022-07-29T11:39:49;22.30;76.10
70947;DHT22;58605;48.700;8.760;2022-07-29T11:42:48;22.60;73.80
70947;DHT22;58605;48.700;8.760;2022-07-29T11:45:17;22.80;74.70
70947;DHT22;58605;48.700;8.760;2022-07-29T11:47:49;23.00;77.50
70947;DHT22;58605;48.700;8.760;2022-07-29T11:50:17;23.10;77.20
70947;DHT22;58605;48.700;8.760;2022-07-29T11:52:45;23.00;76.60
70947;DHT22;58605;48.700;8.760;2022-07-29T11:55:16;23.00;78.30
70947;DHT22;58605;48.700;8.760;2022-07-29T11:57:52;23.10;77.00
70947;DHT22;58605;48.700;8.760;2022-07-29T12:00:26;23.10;76.30
70947;DHT22;58605;48.700;8.760;2022-07-29T12:02:53;23.20;79.70
70947;DHT22;58605;48.700;8.760;2022-07-29T12:05:20;23.20;76.40
70947;DHT22;58605;48.700;8.760;2022-07-29T12:07:47;23.20;80.30
70947;DHT22;58605;48.700;8.760;2022-07-29T12:10:14;23.10;76.50
70947;DHT22;58605;48.700;8.760;2022-07-29T12:12:41;23.10;77.20
70947;DHT22;58605;48.700;8.760;2022-07-29T12:15:17;23.20;77.00
70947;DHT22;58605;48.700;8.760;2022-07-29T12:17:45;23.40;75.20
70947;DHT22;58605;48.700;8.760;2022-07-29T12:20:11;23.60;75.50
70947;DHT22;58605;48.700;8.760;2022-07-29T12:22:41;23.60;76.90
70947;DHT22;58605;48.700;8.760;2022-07-29T12:25:10;23.70;75.40
70947;DHT22;58605;48.700;8.760;2022-07-29T12:27:37;23.70;74.50
70947;DHT22;58605;48.700;8.760;2022-07-29T12:30:06;23.70;74.20
70947;DHT22;58605;48.700;8.760;2022-07-29T12:32:36;23.50;73.50
70947;DHT22;58605;48.700;8.760;2022-07-29T12:35:04;23.40;73.70
70947;DHT22;58605;48.700;8.760;2022-07-29T12:37:34;23.40;75.10
70947;DHT22;58605;48.700;8.760;2022-07-29T12:40:02;23.10;74.80
70947;DHT22;58605;48.700;8.760;2022-07-29T12:42:28;23.10;78.00
70947;DHT22;58605;48.700;8.760;2022-07-29T12:44:54;23.20;77.60
70947;DHT22;58605;48.700;8.760;2022-07-29T12:47:20;23.30;75.60
70947;DHT22;58605;48.700;8.760;2022-07-29T12:49:49;23.40;76.70
70947;DHT22;58605;48.700;8.760;2022-07-29T12:52:28;23.30;76.00
70947;DHT22;58605;48.700;8.760;2022-07-29T12:54:55;23.20;77.50
70947;DHT22;58605;48.700;8.760;2022-07-29T12:57:21;22.90;77.00
70947;DHT22;58605;48.700;8.760;2022-07-29T13:00:05;22.60;77.40
70947;DHT22;58605;48.700;8.760;2022-07-29T13:02:33;22.50;77.90
70947;DHT22;58605;48.700;8.760;2022-07-29T13:05:02;22.60;77.10
70947;DHT22;58605;48.700;8.760;2022-07-29T13:07:31;22.60;77.40
70947;DHT22;58605;48.700;8.760;2022-07-29T13:10:12;22.50;79.30
70947;DHT22;58605;48.700;8.760;2022-07-29T13:12:39;22.40;78.90
70947;DHT22;58605;48.700;8.760;2022-07-29T13:15:13;22.70;77.30
70947;DHT22;58605;48.700;8.760;2022-07-29T13:17:41;22.80;79.70
70947;DHT22;58605;48.700;8.760;2022-07-29T13:20:13;22.90;79.20
70947;DHT22;58605;48.700;8.760;2022-07-29T13:22:40;22.90;78.00
70947;DHT22;58605;48.700;8.760;2022-07-29T13:25:08;23.10;77.40
70947;DHT22;58605;48.700;8.760;2022-07-29T13:27:36;23.00;77.30
70947;DHT22;58605;48.700;8.760;2022-07-29T13:30:05;22.90;76.70
70947;DHT22;58605;48.700;8.760;2022-07-29T13:32:32;23.00;77.40
70947;DHT22;58605;48.700;8.760;2022-07-29T13:35:01;23.20;76.80
70947;DHT22;58605;48.700;8.760;2022-07-29T13:37:29;23.30;77.00
70947;DHT22;58605;48.700;8.760;2022-07-29T13:39:56;23.40;77.30
70947;DHT22;58605;48.700;8.760;2022-07-29T13:42:22;23.50;75.80
70947;DHT22;58605;48.700;8.760;2022-07-29T13:44:49;23.60;75.50
70947;DHT22;58605;48.700;8.760;2022-07-29T13:47:17;23.70;76.10
70947;DHT22;58605;48.700;8.760;2022-07-29T13:49:43;23.70;73.80
70947;DHT22;58605;48.700;8.760;2022-07-29T13:52:09;23.60;74.20
70947;DHT22;58605;48.700;8.760;2022-07-29T13:54:38;23.50;74.70
70947;DHT22;58605;48.700;8.760;2022-07-29T13:57:04;23.50;76.20
70947;DHT22;58605;48.700;8.760;2022-07-29T13:59:30;23.60;74.80
70947;DHT22;58605;48.700;8.760;2022-07-29T14:01:56;23.70;74.10
70947;DHT22;58605;48.700;8.760;2022-07-29T14:04:22;23.60;73.40
70947;DHT22;58605;48.700;8.760;2022-07-29T14:06:50;23.50;73.60
70947;DHT22;58605;48.700;8.760;2022-07-29T14:09:16;23.50;73.40
70947;DHT22;58605;48.700;8.760;2022-07-29T14:11:43;23.30;74.20
70947;DHT22;58605;48.700;8.760;2022-07-29T14:14:10;23.30;74.80
70947;DHT22;58605;48.700;8.760;2022-07-29T14:16:36;23.10;75.30
70947;DHT22;58605;48.700;8.760;2022-07-29T14:19:02;23.00;74.50
70947;DHT22;58605;48.700;8.760;2022-07-29T14:21:28;23.00;74.80
70947;DHT22;58605;48.700;8.760;2022-07-29T14:23:56;23.00;74.20
70947;DHT22;58605;48.700;8.760;2022-07-29T14:26:22;23.00;74.30
70947;DHT22;58605;48.700;8.760;2022-07-29T14:28:50;23.30;71.30
70947;DHT22;58605;48.700;8.760;2022-07-29T14:31:16;23.50;71.70
70947;DHT22;58605;48.700;8.760;2022-07-29T14:33:42;23.40;72.70
70947;DHT22;58605;48.700;8.760;2022-07-29T14:36:08;23.30;73.10
70947;DHT22;58605;48.700;8.760;2022-07-29T14:38:34;23.10;73.70
70947;DHT22;58605;48.700;8.760;2022-07-29T14:41:00;23.00;73.80
70947;DHT22;58605;48.700;8.760;2022-07-29T14:43:27;22.90;72.70
70947;DHT22;58605;48.700;8.760;2022-07-29T14:45:54;22.90;74.00
70947;DHT22;58605;48.700;8.760;2022-07-29T14:48:21;22.90;73.90
70947;DHT22;58605;48.700;8.760;2022-07-29T14:50:47;22.90;73.50
70947;DHT22;58605;48.700;8.760;2022-07-29T14:53:13;22.90;73.50
70947;DHT22;58605;48.700;8.760;2022-07-29T14:55:40;22.90;73.70
70947;DHT22;58605;48.700;8.760;2022-07-29T14:58:07;22.90;73.60
70947;DHT22;58605;48.700;8.760;2022-07-29T15:00:33;22.90;72.50
70947;DHT22;58605;48.700;8.760;2022-07-29T15:03:01;22.70;74.20
70947;DHT22;58605;48.700;8.760;2022-07-29T15:05:28;22.70;74.10
70947;DHT22;58605;48.700;8.760;2022-07-29T15:07:54;22.70;73.90
70947;DHT22;58605;48.700;8.760;2022-07-29T15:10:20;22.70;74.20
70947;DHT22;58605;48.700;8.760;2022-07-29T15:12:46;22.70;74.00
70947;DHT22;58605;48.700;8.760;2022-07-29T15:15:13;22.70;74.00
70947;DHT22;58605;48.700;8.760;2022-07-29T15:17:39;22.60;74.00
70947;DHT22;58605;48.700;8.760;2022-07-29T15:20:07;22.70;74.00
70947;DHT22;58605;48.700;8.760;2022-07-29T15:22:34;22.80;75.10
70947;DHT22;58605;48.700;8.760;2022-07-29T15:24:59;22.70;74.20
70947;DHT22;58605;48.700;8.760;2022-07-29T15:27:26;22.50;74.60
70947;DHT22;58605;48.700;8.760;2022-07-29T15:29:52;22.50;75.00
70947;DHT22;58605;48.700;8.760;2022-07-29T15:32:18;22.50;75.10
70947;DHT22;58605;48.700;8.760;2022-07-29T15:34:44;22.40;75.80
70947;DHT22;58605;48.700;8.760;2022-07-29T15:37:11;22.40;74.60
70947;DHT22;58605;48.700;8.760;2022-07-29T15:39:37;22.30;75.90
70947;DHT22;58605;48.700;8.760;2022-07-29T15:42:04;22.30;75.30